Time;durP1;ratioP1;P1;durP2;ratioP2;P2;SDS_P1;SDS_P2;PMS_P1;PMS_P2;Temp;Humidity;BMP_temperature;BMP_pressure;BME280_temperature;BME280_humidity;BME280_pressure;Samples;Min_cycle;Max_cycle;Signal;HPM_P1;HPM_P2
2023/07/16 00:00:24;;;;;;;6.82;3.47;;;;;;;25.52;41.77;100846.38;5035823;28;20095;-30
2023/07/16 00:02:50;;;;;;;7.88;3.58;;;;;;;25.51;41.55;100852.03;5037348;28;20095;-30
2023/07/16 00:05:17;;;;;;;13.27;3.35;;;;;;;25.49;41.46;100845.97;5034117;28;20040;-30
2023/07/16 00:07:43;;;;;;;7.40;3.00;;;;;;;25.47;41.72;100854.31;5036934;28;20139;-30
2023/07/16 00:10:10;;;;;;;6.50;2.72;;;;;;;25.46;41.42;100852.63;5037113;28;20449;-30
2023/07/16 00:12:37;;;;;;;7.15;2.85;;;;;;;25.45;41.78;100848.25;5041001;28;20080;-31
2023/07/16 00:15:06;;;;;;;6.57;2.72;;;;;;;25.43;41.54;100853.03;5033877;28;20048;-31
2023/07/16 00:17:34;;;;;;;5.13;2.92;;;;;;;25.43;41.67;100852.19;5034103;28;20471;-30
2023/07/16 00:20:00;;;;;;;10.07;3.03;;;;;;;25.41;41.52;100851.56;5035165;28;20141;-30
2023/07/16 00:22:27;;;;;;;6.15;2.60;;;;;;;25.38;41.34;100847.38;5033303;28;20045;-31
2023/07/16 00:24:54;;;;;;;8.85;3.13;;;;;;;25.37;41.33;100859.28;5033675;28;20425;-30
2023/07/16 00:27:20;;;;;;;8.10;2.60;;;;;;;25.34;41.47;100857.78;5034934;28;20053;-30
2023/07/16 00:29:47;;;;;;;8.13;3.03;;;;;;;25.32;41.30;100856.31;5034265;28;20049;-30
2023/07/16 00:32:14;;;;;;;6.15;2.20;;;;;;;25.31;40.76;100857.38;5036919;28;20088;-31
2023/07/16 00:34:40;;;;;;;7.22;2.10;;;;;;;25.29;41.18;100856.75;5035551;28;20049;-30
2023/07/16 00:37:07;;;;;;;8.95;2.78;;;;;;;25.26;40.84;100863.41;5034712;28;20348;-30
2023/07/16 00:39:33;;;;;;;9.98;2.60;;;;;;;25.24;40.86;100859.19;5029748;28;20492;-30
2023/07/16 00:42:00;;;;;;;8.30;2.65;;;;;;;25.22;40.66;100859.41;5036434;28;20050;-30
2023/07/16 00:44:27;;;;;;;5.70;1.98;;;;;;;25.19;41.21;100856.25;5032603;28;20223;-30
2023/07/16 00:46:53;;;;;;;7.88;2.17;;;;;;;25.17;41.14;100870.03;5035865;28;20053;-30
2023/07/16 00:49:20;;;;;;;8.90;2.38;;;;;;;25.16;41.09;100864.78;5036215;28;20099;-30
2023/07/16 00:51:47;;;;;;;8.77;2.05;;;;;;;25.13;41.26;100867.91;5035535;28;20049;-30
2023/07/16 00:54:14;;;;;;;6.38;2.30;;;;;;;25.12;40.94;100867.06;5030320;28;20121;-30
2023/07/16 00:56:40;;;;;;;7.75;2.58;;;;;;;25.09;41.22;100854.75;5033434;28;20397;-30
2023/07/16 00:59:07;;;;;;;4.68;2.00;;;;;;;25.09;40.99;100867.50;5033099;28;20046;-30
2023/07/16 01:01:33;;;;;;;6.57;2.42;;;;;;;25.07;41.18;100862.22;5034055;28;20135;-30
2023/07/16 01:04:00;;;;;;;6.38;2.28;;;;;;;25.06;41.22;100865.13;5031512;28;20046;-30
2023/07/16 01:06:39;;;;;;;6.03;2.45;;;;;;;25.04;41.17;100865.31;5034116;28;20111;-30
2023/07/16 01:09:24;;;;;;;5.47;2.13;;;;;;;25.03;41.07;100869.06;5031453;28;20046;-30
2023/07/16 01:11:53;;;;;;;8.43;3.25;;;;;;;25.04;41.22;100875.34;5038708;28;20179;-31
2023/07/16 01:14:20;;;;;;;5.95;2.25;;;;;;;25.04;40.88;100875.34;5040781;28;20389;-31
2023/07/16 01:16:47;;;;;;;9.27;2.47;;;;;;;25.01;41.06;100868.44;5037580;28;20098;-30
2023/07/16 01:19:13;;;;;;;6.85;2.45;;;;;;;25.01;40.90;100862.19;5041813;28;20048;-30
2023/07/16 01:21:50;;;;;;;6.28;2.78;;;;;;;24.98;41.12;100863.41;5038221;28;20253;-31
2023/07/16 01:24:58;;;;;;;4.75;2.10;;;;;;;24.95;41.23;100869.22;5035786;28;20135;-31
2023/07/16 01:27:58;;;;;;;8.18;2.50;;;;;;;24.93;41.36;100870.50;5037180;28;20057;-30
2023/07/16 01:30:28;;;;;;;6.40;2.28;;;;;;;24.94;41.30;100862.13;5037982;28;20049;-31
2023/07/16 01:32:56;;;;;;;6.85;2.38;;;;;;;24.91;41.07;100865.25;5039694;28;20057;-30
2023/07/16 01:35:24;;;;;;;5.97;2.15;;;;;;;24.87;41.13;100863.97;5038886;28;20045;-30
2023/07/16 01:37:50;;;;;;;7.80;2.55;;;;;;;24.86;41.03;100865.00;5033786;28;20452;-30
2023/07/16 01:40:17;;;;;;;7.78;2.42;;;;;;;24.83;41.37;100862.69;5037307;28;20144;-30
2023/07/16 01:42:43;;;;;;;4.80;2.28;;;;;;;24.82;41.10;100871.88;5036934;28;20050;-30
2023/07/16 01:45:10;;;;;;;7.53;2.80;;;;;;;24.80;41.03;100869.34;5038114;28;20429;-30
2023/07/16 01:47:48;;;;;;;7.45;2.75;;;;;;;24.78;41.23;100867.88;5035743;28;20049;-30
2023/07/16 01:50:14;;;;;;;9.27;2.72;;;;;;;24.79;41.59;100869.53;5040384;28;20234;-30
2023/07/16 01:52:41;;;;;;;7.78;3.13;;;;;;;24.76;41.48;100859.91;5036423;28;20081;-30
2023/07/16 01:55:08;;;;;;;5.70;2.25;;;;;;;24.75;41.45;100866.38;5038698;28;20103;-30
2023/07/16 01:57:34;;;;;;;6.20;2.63;;;;;;;24.75;41.13;100876.41;5031316;28;20179;-29
2023/07/16 02:00:01;;;;;;;5.90;2.63;;;;;;;24.74;41.57;100877.44;5032493;28;20357;-30
2023/07/16 02:02:27;;;;;;;8.55;2.42;;;;;;;24.75;41.60;100876.41;5031438;28;20050;-29
2023/07/16 02:04:54;;;;;;;5.13;2.13;;;;;;;24.72;41.69;100866.78;5034377;28;20049;-29
2023/07/16 02:07:21;;;;;;;8.52;3.08;;;;;;;24.72;41.60;100874.06;5032352;28;20049;-29
2023/07/16 02:09:47;;;;;;;7.50;3.10;;;;;;;24.70;41.81;100868.03;5038226;28;20045;-30
2023/07/16 02:12:14;;;;;;;6.85;2.40;;;;;;;24.69;41.62;100871.78;5035732;28;20041;-30
2023/07/16 02:14:41;;;;;;;9.05;3.17;;;;;;;24.69;41.77;100877.19;5032193;28;20401;-30
2023/07/16 02:17:07;;;;;;;8.18;2.80;;;;;;;24.67;41.43;100873.84;5032087;28;20492;-29
2023/07/16 02:19:34;;;;;;;6.55;2.85;;;;;;;24.65;41.80;100873.22;5031901;28;20076;-30
2023/07/16 02:22:00;;;;;;;9.27;2.40;;;;;;;24.64;41.52;100866.91;5029446;28;20046;-29
2023/07/16 02:24:27;;;;;;;5.40;2.60;;;;;;;24.63;41.92;100873.38;5033255;28;20140;-29
2023/07/16 02:26:53;;;;;;;7.57;2.90;;;;;;;24.62;41.49;100871.72;5030859;28;20442;-30
2023/07/16 02:29:20;;;;;;;5.60;2.78;;;;;;;24.63;41.86;100873.38;5032725;28;20115;-29
2023/07/16 02:31:48;;;;;;;6.60;3.00;;;;;;;24.60;41.85;100874.63;5027971;28;20053;-29
2023/07/16 02:34:15;;;;;;;6.93;2.60;;;;;;;24.60;41.86;100877.34;5026987;28;20057;-30
2023/07/16 02:36:42;;;;;;;8.40;2.75;;;;;;;24.59;42.09;100872.09;5025178;28;20049;-29
2023/07/16 02:39:08;;;;;;;7.22;2.83;;;;;;;24.57;41.59;100872.31;5021268;28;20523;-29
2023/07/16 02:41:35;;;;;;;9.20;3.40;;;;;;;24.57;41.96;100876.91;5028648;28;20092;-30
2023/07/16 02:44:05;;;;;;;6.97;2.80;;;;;;;24.55;42.39;100871.66;5030315;28;20395;-30
2023/07/16 02:46:32;;;;;;;7.68;2.53;;;;;;;24.54;42.10;100871.88;5027903;28;20049;-29
2023/07/16 02:48:58;;;;;;;7.68;3.25;;;;;;;24.54;42.49;100875.41;5028325;28;20079;-29
2023/07/16 02:51:25;;;;;;;8.75;2.90;;;;;;;24.53;41.84;100872.91;5028561;28;20136;-30
2023/07/16 02:53:51;;;;;;;11.65;3.20;;;;;;;24.52;41.74;100866.66;5022775;28;20053;-29
2023/07/16 02:56:18;;;;;;;9.50;3.30;;;;;;;24.50;42.16;100874.13;5027060;28;20091;-30
2023/07/16 02:58:45;;;;;;;11.20;3.20;;;;;;;24.50;42.37;100882.25;5027765;28;20050;-29
2023/07/16 03:01:12;;;;;;;8.98;3.20;;;;;;;24.49;41.92;100880.59;5028020;28;20054;-29
2023/07/16 03:03:39;;;;;;;8.80;3.15;;;;;;;24.47;42.43;100879.94;5028328;28;20746;-29
2023/07/16 03:06:06;;;;;;;10.30;3.65;;;;;;;24.46;42.34;100875.56;5029330;28;20056;-29
2023/07/16 03:08:34;;;;;;;9.88;3.20;;;;;;;24.45;42.58;100879.28;5027797;28;20846;-29
2023/07/16 03:11:00;;;;;;;9.30;2.90;;;;;;;24.45;42.52;100889.31;5029438;28;20152;-29
2023/07/16 03:13:27;;;;;;;10.70;3.28;;;;;;;24.45;42.21;100887.44;5030580;28;20107;-30
2023/07/16 03:15:53;;;;;;;6.22;3.03;;;;;;;24.42;42.46;100874.25;5028679;28;20038;-29
2023/07/16 03:18:20;;;;;;;7.13;2.90;;;;;;;24.41;42.37;100877.19;5028044;28;20112;-30
2023/07/16 03:20:47;;;;;;;9.82;3.03;;;;;;;24.40;42.27;100881.72;5025718;28;20504;-29
2023/07/16 03:23:13;;;;;;;6.25;2.75;;;;;;;24.39;42.48;100888.19;5022290;28;20053;-30
2023/07/16 03:25:40;;;;;;;7.50;3.75;;;;;;;24.38;42.90;100887.34;5026572;28;20065;-30
2023/07/16 03:28:07;;;;;;;6.25;2.78;;;;;;;24.37;42.45;100884.81;5025024;28;20525;-29
2023/07/16 03:30:33;;;;;;;8.77;3.00;;;;;;;24.37;42.80;100890.25;5027565;28;20059;-30
2023/07/16 03:33:00;;;;;;;8.48;3.60;;;;;;;24.36;42.41;100889.41;5028266;28;20429;-29
2023/07/16 03:35:26;;;;;;;9.75;3.20;;;;;;;24.35;42.70;100885.00;5025419;28;20046;-30
2023/07/16 03:37:53;;;;;;;9.05;3.65;;;;;;;24.35;42.22;100893.13;5028809;28;20099;-30
2023/07/16 03:40:24;;;;;;;7.38;3.15;;;;;;;24.33;42.84;100903.34;5027783;28;20057;-29
2023/07/16 03:42:51;;;;;;;9.82;2.70;;;;;;;24.32;42.85;100915.22;5034118;28;20041;-29
2023/07/16 03:45:17;;;;;;;9.90;3.03;;;;;;;24.30;42.24;100914.56;5036440;28;20053;-29
2023/07/16 03:47:44;;;;;;;5.63;2.75;;;;;;;24.30;42.82;100913.72;5035896;28;20422;-29
2023/07/16 03:50:11;;;;;;;8.05;2.97;;;;;;;24.29;42.57;100921.00;5037093;28;20052;-29
2023/07/16 03:52:37;;;;;;;8.52;3.22;;;;;;;24.28;42.47;100940.13;5034253;28;20164;-29
2023/07/16 03:55:04;;;;;;;9.93;3.50;;;;;;;24.27;42.24;100933.06;5037524;28;20091;-29
2023/07/16 03:57:31;;;;;;;7.53;3.20;;;;;;;24.25;42.22;100927.00;5034519;28;20487;-29
2023/07/16 03:59:58;;;;;;;7.28;3.00;;;;;;;24.25;42.59;100929.72;5032413;28;20331;-30
2023/07/16 04:02:25;;;;;;;7.75;2.97;;;;;;;24.25;42.85;100935.13;5035410;28;20124;-29
2023/07/16 04:04:51;;;;;;;12.18;3.47;;;;;;;24.23;42.58;100935.31;5031098;28;20044;-29
2023/07/16 04:07:18;;;;;;;11.15;3.10;;;;;;;24.23;42.90;100937.19;5044918;28;20048;-29
2023/07/16 04:09:44;;;;;;;7.82;2.85;;;;;;;24.21;42.67;100931.97;5032959;28;20049;-29
2023/07/16 04:12:11;;;;;;;8.05;3.13;;;;;;;24.22;42.68;100947.19;5033752;28;20056;-29
2023/07/16 04:14:38;;;;;;;8.43;2.95;;;;;;;24.21;42.67;100948.22;5045933;28;20505;-29
2023/07/16 04:17:05;;;;;;;9.80;2.78;;;;;;;24.20;42.35;100945.69;5029825;28;20103;-29
2023/07/16 04:19:31;;;;;;;10.23;3.25;;;;;;;24.20;42.68;100951.09;5032110;28;20041;-29
2023/07/16 04:21:58;;;;;;;9.32;3.97;;;;;;;24.19;42.58;100941.31;5033472;28;20049;-29
2023/07/16 04:24:26;;;;;;;9.27;3.15;;;;;;;24.18;42.52;100945.06;5030404;28;20345;-31
2023/07/16 04:26:53;;;;;;;9.00;3.67;;;;;;;24.18;42.52;100947.75;5034524;28;20129;-29
2023/07/16 04:29:20;;;;;;;9.75;3.42;;;;;;;24.17;42.54;100954.22;5036338;28;20045;-29
2023/07/16 04:31:47;;;;;;;6.07;3.25;;;;;;;24.14;42.60;100950.00;5033073;28;20049;-29
2023/07/16 04:34:13;;;;;;;9.52;3.70;;;;;;;24.12;42.53;100944.78;5036121;28;20084;-29
2023/07/16 04:36:44;;;;;;;7.65;3.45;;;;;;;24.12;42.40;100955.63;5033867;28;20072;-29
2023/07/16 04:39:10;;;;;;;9.77;3.60;;;;;;;24.12;42.93;100950.22;5037236;28;20053;-29
2023/07/16 04:41:37;;;;;;;8.10;3.72;;;;;;;24.11;42.44;100958.50;5035451;28;20049;-29
2023/07/16 04:44:05;;;;;;;8.70;3.10;;;;;;;24.11;42.58;100955.81;5036202;28;20080;-29
2023/07/16 04:46:31;;;;;;;6.57;3.35;;;;;;;24.10;42.95;100959.53;5033973;28;20347;-29
2023/07/16 04:48:58;;;;;;;8.10;3.83;;;;;;;24.10;42.67;100959.53;5030784;28;20500;-29
2023/07/16 04:51:25;;;;;;;10.95;3.85;;;;;;;24.09;42.35;100953.28;5030912;28;20049;-30
2023/07/16 04:53:51;;;;;;;8.50;3.08;;;;;;;24.09;42.67;100964.13;5027239;28;20076;-29
2023/07/16 04:56:18;;;;;;;5.90;3.30;;;;;;;24.09;42.52;100956.00;5027513;28;20088;-29
2023/07/16 04:58:45;;;;;;;7.82;3.78;;;;;;;24.10;42.84;100959.53;5032605;28;20053;-29
2023/07/16 05:01:12;;;;;;;9.80;4.40;;;;;;;24.12;43.07;100973.72;5030246;28;20045;-29
2023/07/16 05:03:38;;;;;;;8.27;4.07;;;;;;;24.12;42.71;100971.00;5028676;28;20064;-29
2023/07/16 05:06:05;;;;;;;8.13;4.22;;;;;;;24.14;42.55;100977.09;5029354;28;20107;-29
2023/07/16 05:08:32;;;;;;;8.73;3.67;;;;;;;24.14;42.24;100975.22;5027047;28;20053;-29
2023/07/16 05:10:59;;;;;;;9.27;4.22;;;;;;;24.17;42.84;100984.84;5030254;28;20161;-29
2023/07/16 05:13:25;;;;;;;13.73;3.85;;;;;;;24.18;42.79;100980.25;5031746;28;20053;-28
2023/07/16 05:15:52;;;;;;;8.80;3.47;;;;;;;24.19;42.33;100980.06;5029476;28;20052;-29
2023/07/16 05:18:19;;;;;;;9.27;3.88;;;;;;;24.21;42.59;100979.88;5026582;28;20049;-29
2023/07/16 05:20:49;;;;;;;6.25;3.22;;;;;;;24.20;42.53;100981.75;5029088;28;20057;-29
2023/07/16 05:23:15;;;;;;;8.13;3.50;;;;;;;24.21;42.52;100983.44;5028112;28;20045;-29
2023/07/16 05:25:49;;;;;;;11.40;3.88;;;;;;;24.24;41.59;100995.72;5025665;28;20092;-34
2023/07/16 05:28:16;;;;;;;;;;;;;;;24.23;41.61;101000.31;5026468;28;20050;-29
2023/07/16 05:30:43;;;;;;;9.02;3.83;;;;;;;24.27;42.20;100998.06;5029679;28;20286;-29
2023/07/16 05:33:11;;;;;;;9.02;3.80;;;;;;;24.27;41.73;101003.47;5022722;28;20049;-29
2023/07/16 05:35:39;;;;;;;10.88;3.95;;;;;;;24.27;41.97;101001.59;5025652;28;20068;-31
2023/07/16 05:38:06;;;;;;;12.02;3.83;;;;;;;24.29;41.50;101004.16;5027795;28;20374;-31
2023/07/16 05:40:32;;;;;;;8.80;3.90;;;;;;;24.30;41.88;100998.53;5032559;28;20467;-29
2023/07/16 05:42:59;;;;;;;8.27;3.70;;;;;;;24.31;41.72;101002.91;5027957;28;20124;-29
2023/07/16 05:45:25;;;;;;;8.75;3.60;;;;;;;24.33;41.82;101006.28;5025273;28;20118;-31
2023/07/16 05:47:52;;;;;;;11.35;4.28;;;;;;;24.35;41.68;101000.66;5025278;28;20045;-29
2023/07/16 05:50:19;;;;;;;9.13;3.75;;;;;;;24.35;41.62;101006.91;5033704;28;20049;-31
2023/07/16 05:52:48;;;;;;;10.50;4.50;;;;;;;24.36;41.20;101013.16;5032923;28;20064;-32
2023/07/16 05:55:14;;;;;;;11.57;4.47;;;;;;;24.35;41.01;101012.31;5036592;28;20054;-29
2023/07/16 05:57:41;;;;;;;11.02;5.03;;;;;;;24.36;40.78;101014.03;5034285;28;20049;-29
2023/07/16 06:00:08;;;;;;;12.57;4.05;;;;;;;24.36;40.88;101024.88;5041240;28;20045;-29
2023/07/16 06:02:35;;;;;;;10.45;4.43;;;;;;;24.34;40.77;101026.91;5029825;28;20086;-29
2023/07/16 06:05:02;;;;;;;9.13;4.38;;;;;;;24.35;41.24;101025.03;5031880;28;20333;-30
2023/07/16 06:07:29;;;;;;;7.28;4.38;;;;;;;24.34;40.86;101031.50;5024918;28;20072;-29
2023/07/16 06:09:55;;;;;;;9.52;3.75;;;;;;;24.33;41.19;101019.81;5031427;28;20140;-29
2023/07/16 06:12:22;;;;;;;11.70;4.38;;;;;;;24.33;41.34;101017.13;5026142;28;20363;-29
2023/07/16 06:14:49;;;;;;;7.78;4.20;;;;;;;24.35;40.89;101016.91;5030326;28;20049;-29
2023/07/16 06:17:16;;;;;;;9.35;4.40;;;;;;;24.36;41.27;101026.72;5030075;28;20513;-32
2023/07/16 06:19:42;;;;;;;7.55;4.20;;;;;;;24.37;40.85;101028.41;5030723;28;20049;-29
2023/07/16 06:22:09;;;;;;;8.82;4.43;;;;;;;24.37;40.91;101041.97;5029886;28;20392;-30
2023/07/16 06:24:36;;;;;;;8.93;3.72;;;;;;;24.37;41.57;101036.53;5028502;28;20079;-29
2023/07/16 06:27:02;;;;;;;9.35;3.60;;;;;;;24.36;41.01;101035.72;5027417;28;20045;-29
2023/07/16 06:29:29;;;;;;;8.57;4.07;;;;;;;24.36;41.38;101043.84;5029477;28;20057;-30
2023/07/16 06:31:58;;;;;;;8.27;3.90;;;;;;;24.35;40.99;101038.59;5025304;28;20493;-30
2023/07/16 06:34:25;;;;;;;9.55;4.40;;;;;;;24.34;41.33;101058.59;5026846;28;20421;-29
2023/07/16 06:36:52;;;;;;;10.32;4.20;;;;;;;24.33;40.86;101046.06;5024393;28;20495;-29
2023/07/16 06:39:18;;;;;;;10.90;4.70;;;;;;;24.32;41.57;101055.22;5023633;28;20085;-29
2023/07/16 06:41:45;;;;;;;7.10;4.28;;;;;;;24.32;40.88;101057.91;5025634;28;20069;-29
2023/07/16 06:44:11;;;;;;;13.18;4.47;;;;;;;24.32;41.37;101060.63;5024247;28;20049;-30
2023/07/16 06:46:38;;;;;;;13.15;4.95;;;;;;;24.30;41.04;101071.66;5024005;28;20436;-29
2023/07/16 06:49:06;;;;;;;10.88;3.97;;;;;;;24.30;41.16;101077.09;5022266;28;20053;-29
2023/07/16 06:51:33;;;;;;;10.48;4.57;;;;;;;24.30;41.17;101078.97;5027682;28;20131;-30
2023/07/16 06:54:00;;;;;;;8.02;4.13;;;;;;;24.28;41.46;101075.59;5028207;28;20133;-29
2023/07/16 06:56:27;;;;;;;10.90;5.00;;;;;;;24.29;41.72;101085.41;5036511;28;20049;-29
2023/07/16 06:58:53;;;;;;;11.05;4.95;;;;;;;24.29;41.56;101077.28;5037454;28;20060;-30
2023/07/16 07:01:20;;;;;;;8.20;4.28;;;;;;;24.29;41.20;101088.13;5032568;28;20042;-30
2023/07/16 07:03:47;;;;;;;8.00;4.03;;;;;;;24.27;41.39;101088.28;5033823;28;20448;-32
2023/07/16 07:06:14;;;;;;;12.05;5.47;;;;;;;24.28;41.74;101090.00;5030060;28;20081;-29
2023/07/16 07:08:41;;;;;;;11.52;4.85;;;;;;;24.28;41.32;101089.13;5034325;28;20349;-29
2023/07/16 07:11:08;;;;;;;12.05;5.57;;;;;;;24.27;41.85;101091.00;5033971;28;20069;-31
2023/07/16 07:13:34;;;;;;;10.98;4.40;;;;;;;24.28;41.95;101083.72;5036067;28;20438;-29
2023/07/16 07:16:01;;;;;;;7.20;4.35;;;;;;;24.28;42.06;101086.41;5028921;28;20050;-29
2023/07/16 07:18:28;;;;;;;7.68;4.13;;;;;;;24.27;41.79;101088.28;5036422;28;20045;-28
2023/07/16 07:20:54;;;;;;;8.02;4.63;;;;;;;24.29;42.10;101101.66;5037923;28;20053;-29
2023/07/16 07:23:21;;;;;;;10.50;4.88;;;;;;;24.29;42.29;101115.22;5033492;28;20081;-29
2023/07/16 07:25:51;;;;;;;9.05;4.72;;;;;;;24.28;42.12;101108.97;5039594;28;20053;-31
2023/07/16 07:28:21;;;;;;;11.43;4.50;;;;;;;24.29;42.27;101115.22;5040250;28;20107;-29
2023/07/16 07:30:47;;;;;;;13.40;4.65;;;;;;;24.29;42.47;101117.91;5033484;28;20469;-29
2023/07/16 07:33:14;;;;;;;7.53;4.28;;;;;;;24.30;42.17;101114.19;5038078;28;20096;-30
2023/07/16 07:35:41;;;;;;;10.25;4.75;;;;;;;24.29;42.47;101123.34;5039167;28;20140;-28
2023/07/16 07:38:07;;;;;;;11.82;4.85;;;;;;;24.29;42.56;101123.34;5028120;28;21048;-29
2023/07/16 07:40:34;;;;;;;11.20;5.20;;;;;;;24.27;42.27;101139.75;5013221;28;20058;-32
2023/07/16 07:43:01;;;;;;;15.13;4.78;;;;;;;24.23;42.16;101134.91;5016371;28;20053;-30
2023/07/16 07:45:27;;;;;;;10.65;4.35;;;;;;;24.18;42.43;101145.47;5017717;28;20171;-31
2023/07/16 07:47:54;;;;;;;13.43;5.32;;;;;;;24.17;42.88;101141.09;5021396;28;20138;-31
2023/07/16 07:50:21;;;;;;;11.20;4.43;;;;;;;24.16;43.14;101133.97;5019605;28;20061;-31
2023/07/16 07:52:47;;;;;;;10.48;5.15;;;;;;;24.17;42.95;101131.09;5017043;28;20061;-30
2023/07/16 07:55:14;;;;;;;14.25;5.32;;;;;;;24.18;43.19;101148.19;4989348;28;20045;-33
2023/07/16 07:57:41;;;;;;;12.73;5.85;;;;;;;24.17;43.05;101141.94;5034584;28;20389;-30
2023/07/16 08:00:11;;;;;;;12.93;5.03;;;;;;;24.17;43.43;101139.22;5021743;28;20061;-30
2023/07/16 08:02:38;;;;;;;16.65;5.72;;;;;;;24.18;43.47;101145.47;5021282;28;20057;-29
2023/07/16 08:05:05;;;;;;;11.23;4.68;;;;;;;24.17;42.97;101138.38;5021745;28;20056;-29
2023/07/16 08:07:32;;;;;;;12.55;4.65;;;;;;;24.17;43.34;101141.94;5017610;28;20136;-30
2023/07/16 08:09:59;;;;;;;14.10;5.70;;;;;;;24.17;42.65;101157.34;5019590;28;20665;-30
2023/07/16 08:12:26;;;;;;;14.63;5.13;;;;;;;24.14;43.12;101162.09;5021488;28;20135;-31
2023/07/16 08:14:52;;;;;;;12.27;4.82;;;;;;;24.15;43.11;101160.22;5016895;28;20053;-30
2023/07/16 08:17:19;;;;;;;9.85;4.60;;;;;;;24.18;43.59;101151.72;4980833;28;20445;-30
2023/07/16 08:19:49;;;;;;;12.07;4.72;;;;;;;24.23;42.81;101157.41;5019272;28;20132;-31
2023/07/16 08:22:16;;;;;;;11.85;5.55;;;;;;;24.27;42.73;101150.59;5020245;28;20060;-34
2023/07/16 08:24:43;;;;;;;11.55;4.60;;;;;;;24.33;42.45;101165.28;5018194;28;20467;-31
2023/07/16 08:27:09;;;;;;;10.10;4.75;;;;;;;24.36;42.78;101167.59;5020096;28;20077;-30
2023/07/16 08:29:36;;;;;;;9.23;4.80;;;;;;;24.40;42.85;101176.22;5019223;28;20424;-29
2023/07/16 08:32:03;;;;;;;11.25;5.20;;;;;;;24.42;42.86;101175.00;5017054;28;20458;-29
2023/07/16 08:34:30;;;;;;;8.80;4.97;;;;;;;24.44;43.10;101172.94;5017095;28;20149;-29
2023/07/16 08:36:57;;;;;;;9.52;4.40;;;;;;;24.46;42.55;101176.31;4994740;28;20073;-29
2023/07/16 08:39:24;;;;;;;24.70;5.25;;;;;;;24.49;42.90;101175.13;5023246;28;20062;-29
2023/07/16 08:41:52;;;;;;;12.23;5.40;;;;;;;24.50;43.18;101183.03;5020073;28;20053;-31
2023/07/16 08:44:20;;;;;;;12.88;5.57;;;;;;;24.53;42.70;101177.25;5021446;28;20053;-32
2023/07/16 08:46:47;;;;;;;11.90;4.65;;;;;;;24.56;43.17;101181.44;5019781;28;20273;-30
2023/07/16 08:49:18;;;;;;;11.48;5.10;;;;;;;24.58;43.57;101188.34;5020064;28;20057;-30
2023/07/16 08:51:48;;;;;;;15.00;5.70;;;;;;;24.63;44.17;101187.78;5017554;28;20080;-30
2023/07/16 08:54:17;;;;;;;12.45;5.57;;;;;;;24.65;44.92;101195.75;5016761;28;20053;-31
2023/07/16 08:56:44;;;;;;;20.17;6.72;;;;;;;24.69;44.42;101181.63;4986693;28;20077;-30
2023/07/16 08:59:11;;;;;;;17.48;6.13;;;;;;;24.71;45.67;101194.97;5023764;28;20084;-30
2023/07/16 09:01:38;;;;;;;17.33;6.40;;;;;;;24.74;45.71;101194.59;5018832;28;20053;-30
2023/07/16 09:04:04;;;;;;;14.75;5.60;;;;;;;24.76;45.61;101192.53;5020547;28;20057;-30
2023/07/16 09:06:31;;;;;;;18.55;6.30;;;;;;;24.79;46.16;101200.28;5016537;28;20061;-32
2023/07/16 09:08:58;;;;;;;15.48;6.72;;;;;;;24.80;46.68;101200.09;5018685;28;20326;-33
2023/07/16 09:11:25;;;;;;;18.45;6.68;;;;;;;24.85;46.37;101202.25;5017578;28;20123;-31
2023/07/16 09:13:51;;;;;;;20.75;7.70;;;;;;;24.86;47.06;101199.34;5016257;28;20136;-32
2023/07/16 09:16:18;;;;;;;15.65;7.53;;;;;;;24.90;46.76;101202.53;4982746;28;20057;-30
2023/07/16 09:18:45;;;;;;;19.90;7.90;;;;;;;24.93;47.20;101201.31;5020600;28;20460;-30
2023/07/16 09:21:12;;;;;;;17.27;8.60;;;;;;;24.96;47.43;101204.44;5019777;28;20446;-30
2023/07/16 09:23:41;;;;;;;17.77;7.72;;;;;;;25.00;47.42;101210.34;5016981;28;20158;-30
2023/07/16 09:26:08;;;;;;;20.35;7.55;;;;;;;25.01;46.76;101209.34;5020892;28;20639;-30
2023/07/16 09:28:34;;;;;;;15.93;7.28;;;;;;;25.04;47.04;101208.91;5017799;28;20042;-30
2023/07/16 09:31:06;;;;;;;18.90;6.47;;;;;;;25.04;46.99;101198.91;5018599;28;20052;-30
2023/07/16 09:33:33;;;;;;;12.00;5.88;;;;;;;25.06;46.70;101210.41;5018630;28;20053;-32
2023/07/16 09:36:00;;;;;;;11.43;5.13;;;;;;;25.07;46.16;101222.09;4987852;28;20053;-32
2023/07/16 09:38:27;;;;;;;11.38;5.30;;;;;;;25.07;46.39;101214.81;5028486;28;20072;-30
2023/07/16 09:40:55;;;;;;;12.75;5.93;;;;;;;25.08;46.21;101216.47;5017928;28;20041;-32
2023/07/16 09:43:22;;;;;;;10.93;4.97;;;;;;;25.11;46.17;101223.44;5015608;28;20099;-31
2023/07/16 09:45:50;;;;;;;10.32;4.53;;;;;;;25.13;45.64;101220.53;5018179;28;20179;-31
2023/07/16 09:48:17;;;;;;;11.27;5.15;;;;;;;25.13;45.43;101234.09;5019477;28;20047;-33
2023/07/16 09:50:52;;;;;;;15.77;4.75;;;;;;;25.13;45.77;101236.81;5016712;28;20313;-32
2023/07/16 09:53:20;;;;;;;11.52;4.45;;;;;;;25.15;45.23;101234.75;5019374;28;20053;-32
2023/07/16 09:55:49;;;;;;;15.90;5.47;;;;;;;25.16;45.55;101237.25;4984427;28;20277;-31
2023/07/16 09:58:19;;;;;;;10.75;4.53;;;;;;;25.16;45.31;101241.84;5027924;28;20060;-32
2023/07/16 10:00:47;;;;;;;12.57;4.85;;;;;;;25.18;45.82;101245.22;5018967;28;20103;-30
2023/07/16 10:03:16;;;;;;;11.82;4.85;;;;;;;25.21;45.54;101236.72;5017230;28;20099;-31
2023/07/16 10:05:43;;;;;;;10.18;4.00;;;;;;;25.22;45.53;101246.53;5015969;28;20242;-29
2023/07/16 10:08:18;;;;;;;9.05;4.13;;;;;;;25.23;45.46;101248.19;5020653;28;20041;-32
2023/07/16 10:10:56;;;;;;;6.55;3.55;;;;;;;25.25;45.69;101268.69;5017966;28;20068;-30
2023/07/16 10:13:24;;;;;;;11.57;4.68;;;;;;;25.28;45.48;101251.16;5018641;28;20062;-30
2023/07/16 10:15:55;;;;;;;5.60;3.53;;;;;;;25.30;45.26;101259.97;4990326;28;20099;-30
2023/07/16 10:18:30;;;;;;;14.65;4.68;;;;;;;25.31;44.98;101256.22;4992747;28;20422;-32
2023/07/16 10:21:08;;;;;;;7.80;4.22;;;;;;;25.33;45.24;101260.44;5018116;28;20052;-32
2023/07/16 10:23:43;;;;;;;8.23;4.60;;;;;;;25.33;44.93;101268.56;5014038;28;20356;-31
2023/07/16 10:26:12;;;;;;;9.55;3.90;;;;;;;25.35;45.28;101269.22;5018083;28;20049;-30
2023/07/16 10:28:45;;;;;;;14.65;6.57;;;;;;;25.37;45.20;101260.91;5018299;28;20319;-29
2023/07/16 10:31:22;;;;;;;11.93;6.70;;;;;;;25.38;45.24;101273.41;5016262;28;20111;-29
2023/07/16 10:34:01;;;;;;;17.58;8.90;;;;;;;25.38;44.59;101278.00;5019552;28;20053;-30
2023/07/16 10:36:28;;;;;;;12.07;6.18;;;;;;;25.39;44.51;101272.38;4988016;28;20162;-29
2023/07/16 10:39:02;;;;;;;13.70;6.68;;;;;;;25.38;44.47;101273.41;5024788;28;20181;-29
2023/07/16 10:41:30;;;;;;;14.80;6.18;;;;;;;25.39;44.22;101274.25;5017873;28;20063;-29
2023/07/16 10:43:57;;;;;;;10.27;5.75;;;;;;;25.40;44.32;101282.19;5019728;28;20057;-30
2023/07/16 10:46:24;;;;;;;12.45;5.15;;;;;;;25.41;44.14;101277.59;5019513;28;20136;-29
2023/07/16 10:48:51;;;;;;;10.75;5.65;;;;;;;25.41;44.43;101267.63;5019869;28;20053;-29
2023/07/16 10:51:18;;;;;;;12.77;6.00;;;;;;;25.44;44.13;101294.34;5020961;28;20045;-30
2023/07/16 10:53:44;;;;;;;16.15;6.03;;;;;;;25.46;44.23;101273.28;5021437;28;20053;-30
2023/07/16 10:56:11;;;;;;;11.63;5.75;;;;;;;25.50;44.22;101280.03;4993229;28;20087;-31
2023/07/16 10:58:38;;;;;;;11.75;5.55;;;;;;;25.55;44.25;101288.41;5022209;28;20448;-30
2023/07/16 11:01:04;;;;;;;11.10;5.53;;;;;;;25.59;44.15;101280.72;5020636;28;20131;-30
2023/07/16 11:03:31;;;;;;;11.40;5.18;;;;;;;25.63;44.11;101302.91;5015770;28;20322;-30
2023/07/16 11:05:58;;;;;;;10.45;4.80;;;;;;;25.65;44.14;101290.84;5020449;28;20064;-31
2023/07/16 11:08:25;;;;;;;11.40;5.22;;;;;;;25.66;44.00;101307.97;5019488;28;20041;-30
2023/07/16 11:10:58;;;;;;;8.50;4.68;;;;;;;25.69;44.19;101299.41;5022902;28;20049;-31
2023/07/16 11:13:29;;;;;;;17.30;5.07;;;;;;;25.71;44.15;101316.34;5021548;28;20056;-31
2023/07/16 11:15:56;;;;;;;9.50;4.90;;;;;;;25.73;44.05;101304.28;4982628;28;20061;-30
2023/07/16 11:18:26;;;;;;;8.85;3.97;;;;;;;25.76;44.05;101297.59;5017050;28;20128;-31
2023/07/16 11:20:53;;;;;;;10.75;5.47;;;;;;;25.79;44.03;101303.53;5017562;28;20049;-31
2023/07/16 11:23:20;;;;;;;13.57;7.00;;;;;;;25.83;43.93;101303.97;5018949;28;20089;-31